CheckWX is a tool to help pilots better visualize weather data.  It is not intended as a substitute for an official pre-flight weather briefing.

13:32:50 UTC

17J METAR
Donalsonville Municipal Airport
Donalsonville, Georgia, USA
Current

18 mins ago

K17J 201315Z AUTO 13003KT 10SM SCT009 24/22 A3008 RMK AO2 T02440216
Observed
May-20 @ 13:15 UTC
Wind
  • 130° at 3 KTS
Visibility
10 SM
Flight Rules
VFR
Cloud Levels
  • Scattered at 900' AGL
Temperature
24°C / 75°F
Dewpoint
22°C / 72°F
Humidity
89%
Altimeter
30.08" Hg
Pressure
1018.62 hPa
Previous

38 mins ago

K17J 201255Z AUTO 00000KT 10SM SCT009 23/22 A3008 RMK AO2 T02350216
Observed
May-20 @ 12:55 UTC
Visibility
10 SM
Flight Rules
VFR
Cloud Levels
  • Scattered at 900' AGL
Temperature
24°C / 75°F
Dewpoint
22°C / 72°F
Humidity
89%
Altimeter
30.08" Hg
Pressure
1018.62 hPa
Previous

58 mins ago

K17J 201235Z AUTO 00000KT 10SM CLR 23/21 A3007 RMK AO2 T02260212
Observed
May-20 @ 12:35 UTC
Visibility
10 SM
Flight Rules
VFR
Cloud Levels
  • Clear skies
Temperature
23°C / 73°F
Dewpoint
21°C / 70°F
Humidity
89%
Altimeter
30.07" Hg
Pressure
1018.32 hPa